Portugal Quinto — CUPR3 — position and weather

sailwx.info

Track history (hours):
 
Tides and Currents Weather Stations Pressure Air Temp Water Temp Dewpoint Dewpoint Depression Visibility Wind Speed Wind Dir Waves Ship Positions

Portugal Quinto

Last reported at 2017-Oct-24 05:23 UTC. Time now 2017-Dec-11 09:42 UTC.
Position N 37°08' W 008°32'.
Warning: this ship's position is 48 days out of date.

Length 21 m.

Type: Fishing. MMSI: 263406770.

Date/timePositionNaut miles runAvg speedWind from/ knotsBaromVisibWave heightAir tempDewpointWater temp
2017-Oct-24 05:23N 37°08' W 008°32'0 0.0
2017-Oct-24 05:00N 37°08' W 008°32'0 0.2
2017-Oct-24 04:31N 37°08' W 008°32'1 2.0
2017-Oct-24 04:00N 37°07' W 008°31'4 7.9
2017-Oct-24 03:30N 37°05' W 008°36'2 4.7
2017-Oct-24 03:00N 37°04' W 008°39'0 0.2
2017-Oct-24 02:30N 37°05' W 008°39'0 0.1
2017-Oct-24 02:01N 37°05' W 008°39'0 0.1
2017-Oct-24 01:30N 37°05' W 008°39'0 0.1
2017-Oct-24 01:00N 37°05' W 008°39'0 0.1
2017-Oct-24 00:30N 37°05' W 008°39'0 0.2
2017-Oct-24 00:01N 37°04' W 008°39'0 0.3
2017-Oct-23 23:30N 37°04' W 008°39'1 1.9
2017-Oct-23 23:01N 37°05' W 008°38'1 1.9
2017-Oct-23 22:30N 37°04' W 008°37'3 5.4
2017-Oct-23 22:01N 37°05' W 008°34'3 6.6
2017-Oct-23 21:30N 37°08' W 008°32'0 0.0
2017-Oct-23 08:23N 37°08' W 008°32'0 0.0
2017-Oct-23 08:00N 37°08' W 008°32'0 0.0
2017-Oct-23 07:30N 37°08' W 008°32'0 0.0
2017-Oct-23 07:01N 37°08' W 008°32'0 0.0
2017-Oct-23 06:30N 37°08' W 008°32'0 0.0
2017-Oct-23 06:00N 37°08' W 008°32'0 0.0
2017-Oct-23 05:31N 37°08' W 008°32'0 0.0
2017-Oct-23 05:01N 37°08' W 008°32'0 0.0
2017-Oct-23 04:30N 37°08' W 008°32'0 0.0
2017-Oct-23 04:00N 37°08' W 008°32'0 0.0
2017-Oct-23 03:30N 37°08' W 008°32'0 0.0
2017-Oct-23 03:01N 37°08' W 008°32'0 0.2
2017-Oct-23 02:30N 37°08' W 008°32'0 0.0
2017-Oct-23 02:01N 37°08' W 008°32'3 5.1
2017-Oct-23 01:30N 37°06' W 008°33'3 6.0
2017-Oct-23 01:01N 37°05' W 008°36'0 0.3
2017-Oct-23 00:30N 37°05' W 008°37'0 0.2
2017-Oct-23 00:00N 37°05' W 008°37'0 0.2
2017-Oct-22 23:29N 37°05' W 008°37'0 0.1
2017-Oct-22 23:00N 37°05' W 008°37'0 0.3
2017-Oct-22 22:30N 37°05' W 008°37'2 4.7
2017-Oct-22 21:59N 37°05' W 008°34'3 7.1
2017-Oct-22 21:30N 37°08' W 008°32'  
2017-Oct-20 04:05N 37°08' W 008°32'0 1.0
2017-Oct-20 04:00N 37°08' W 008°32'3 5.9
2017-Oct-20 03:30N 37°06' W 008°35'3 6.0
2017-Oct-20 03:00N 37°05' W 008°38'3 6.6
2017-Oct-20 02:29N 37°02' W 008°39'3 5.9
2017-Oct-20 02:00N 37°02' W 008°42'3 6.4
2017-Oct-20 01:30N 37°03' W 008°46'2 3.0
2017-Oct-20 00:59N 37°03' W 008°48'4 8.3
2017-Oct-20 00:30N 37°04' W 008°43'5 9.1
2017-Oct-20 00:00N 37°05' W 008°38'4 8.6
2017-Oct-19 23:30N 37°06' W 008°32'2 0.1
2017-Oct-19 03:32N 37°08' W 008°32'0 0.0
2017-Oct-19 03:30N 37°08' W 008°32'3 6.9
2017-Oct-19 03:00N 37°05' W 008°33'4 7.1
2017-Oct-19 02:30N 37°02' W 008°35'4 7.1
2017-Oct-19 02:00N 37°02' W 008°39'2 4.1
2017-Oct-19 01:30N 37°03' W 008°41'4 7.7
2017-Oct-19 01:00N 37°05' W 008°36'4 7.6
2017-Oct-19 00:30N 37°06' W 008°32'2 3.5
2017-Oct-19 00:00N 37°08' W 008°32'  
2017-Oct-16 00:35N 37°08' W 008°32'0 0.0
2017-Oct-16 00:30N 37°08' W 008°32'2 4.8
2017-Oct-16 00:00N 37°06' W 008°32'2 4.7
2017-Oct-15 23:29N 37°08' W 008°32'  
Track history (hours):
 
Tides and Currents Weather Stations Pressure Air Temp Water Temp Dewpoint Dewpoint Depression Visibility Wind Speed Wind Dir Waves Ship Positions

Portugal Quinto

Last reported at 2017-Oct-24 05:23 UTC. Time now 2017-Dec-11 09:42 UTC.
Position N 37°08' W 008°32'.
Warning: this ship's position is 48 days out of date.

Length 21 m.

Type: Fishing. MMSI: 263406770.

Date/timePositionNaut miles runAvg speedWind from/ knotsBaromVisibWave heightAir tempDewpointWater temp
2017-Oct-24 05:23N 37°08' W 008°32'0 0.0
2017-Oct-24 05:00N 37°08' W 008°32'0 0.2
2017-Oct-24 04:31N 37°08' W 008°32'1 2.0
2017-Oct-24 04:00N 37°07' W 008°31'4 7.9
2017-Oct-24 03:30N 37°05' W 008°36'2 4.7
2017-Oct-24 03:00N 37°04' W 008°39'0 0.2
2017-Oct-24 02:30N 37°05' W 008°39'0 0.1
2017-Oct-24 02:01N 37°05' W 008°39'0 0.1
2017-Oct-24 01:30N 37°05' W 008°39'0 0.1
2017-Oct-24 01:00N 37°05' W 008°39'0 0.1
2017-Oct-24 00:30N 37°05' W 008°39'0 0.2
2017-Oct-24 00:01N 37°04' W 008°39'0 0.3
2017-Oct-23 23:30N 37°04' W 008°39'1 1.9
2017-Oct-23 23:01N 37°05' W 008°38'1 1.9
2017-Oct-23 22:30N 37°04' W 008°37'3 5.4
2017-Oct-23 22:01N 37°05' W 008°34'3 6.6
2017-Oct-23 21:30N 37°08' W 008°32'0 0.0
2017-Oct-23 08:23N 37°08' W 008°32'0 0.0
2017-Oct-23 08:00N 37°08' W 008°32'0 0.0
2017-Oct-23 07:30N 37°08' W 008°32'0 0.0
2017-Oct-23 07:01N 37°08' W 008°32'0 0.0
2017-Oct-23 06:30N 37°08' W 008°32'0 0.0
2017-Oct-23 06:00N 37°08' W 008°32'0 0.0
2017-Oct-23 05:31N 37°08' W 008°32'0 0.0
2017-Oct-23 05:01N 37°08' W 008°32'0 0.0
2017-Oct-23 04:30N 37°08' W 008°32'0 0.0
2017-Oct-23 04:00N 37°08' W 008°32'0 0.0
2017-Oct-23 03:30N 37°08' W 008°32'0 0.0
2017-Oct-23 03:01N 37°08' W 008°32'0 0.2
2017-Oct-23 02:30N 37°08' W 008°32'0 0.0
2017-Oct-23 02:01N 37°08' W 008°32'3 5.1
2017-Oct-23 01:30N 37°06' W 008°33'3 6.0
2017-Oct-23 01:01N 37°05' W 008°36'0 0.3
2017-Oct-23 00:30N 37°05' W 008°37'0 0.2
2017-Oct-23 00:00N 37°05' W 008°37'0 0.2
2017-Oct-22 23:29N 37°05' W 008°37'0 0.1
2017-Oct-22 23:00N 37°05' W 008°37'0 0.3
2017-Oct-22 22:30N 37°05' W 008°37'2 4.7
2017-Oct-22 21:59N 37°05' W 008°34'3 7.1
2017-Oct-22 21:30N 37°08' W 008°32'  
2017-Oct-20 04:05N 37°08' W 008°32'0 1.0
2017-Oct-20 04:00N 37°08' W 008°32'3 5.9
2017-Oct-20 03:30N 37°06' W 008°35'3 6.0
2017-Oct-20 03:00N 37°05' W 008°38'3 6.6
2017-Oct-20 02:29N 37°02' W 008°39'3 5.9
2017-Oct-20 02:00N 37°02' W 008°42'3 6.4
2017-Oct-20 01:30N 37°03' W 008°46'2 3.0
2017-Oct-20 00:59N 37°03' W 008°48'4 8.3
2017-Oct-20 00:30N 37°04' W 008°43'5 9.1
2017-Oct-20 00:00N 37°05' W 008°38'4 8.6
2017-Oct-19 23:30N 37°06' W 008°32'2 0.1
2017-Oct-19 03:32N 37°08' W 008°32'0 0.0
2017-Oct-19 03:30N 37°08' W 008°32'3 6.9
2017-Oct-19 03:00N 37°05' W 008°33'4 7.1
2017-Oct-19 02:30N 37°02' W 008°35'4 7.1
2017-Oct-19 02:00N 37°02' W 008°39'2 4.1
2017-Oct-19 01:30N 37°03' W 008°41'4 7.7
2017-Oct-19 01:00N 37°05' W 008°36'4 7.6
2017-Oct-19 00:30N 37°06' W 008°32'2 3.5
2017-Oct-19 00:00N 37°08' W 008°32'  
2017-Oct-16 00:35N 37°08' W 008°32'0 0.0
2017-Oct-16 00:30N 37°08' W 008°32'2 4.8
2017-Oct-16 00:00N 37°06' W 008°32'2 4.7
2017-Oct-15 23:29N 37°08' W 008°32'  

Dump ship's entire track history